首页
METAR-TAF:

METAR-TAF

机场 :

洛杉磯國際機場

洛杉矶, 加利福尼亚州, 美国

纬度: 33-56-17N, 经度: 118-23-20W, 海拔: 38米

当前天气观测

该预报发布于44分钟前的04:53 UTC
风速7节,风向
温度 13°C
湿度 72%
气压 1006 hPa
能見度: 16.1公里
多云层高于4700英尺
多云层高于6000英尺

METAR: KLAX 210453Z 09007KT 10SM BKN047 BKN060 13/08 A2971 RMK AO2 SLP060 T01330078

时间: 21:37 (05:37 UTC)

预报

该预报发布于23分钟前的05:14 UTC
预报有效从21日的 05点(UTC)到 22日的 06点(UTC)
风速7节,风向
能見度: 10公里
多云层高于4500英尺
多云层高于6000英尺
附近有阵雨
短暂存在
从 21日的 05点(UTC)到 21日的 06点(UTC)
能見度: 6.4公里
多云层高于3500英尺
阵雨, 轻雾
从 21日的 1100点(UTC)
风速5节,风向东转东北
能見度: 10公里
阴天层高于4500英尺
从 21日的 2000点(UTC)
风速9节,风向西转西南
能見度: 10公里
多云层高于5000英尺
从 22日的 0400点(UTC)
风速3节,风向多变
能見度: 10公里
多云层高于4000英尺

TAF: KLAX 210514Z 2105/2206 09007KT P6SM VCSH BKN045 BKN060 TEMPO 2105/2106 4SM SHRA BR BKN035 FM211100 07005KT P6SM OVC045 FM212000 25009KT P6SM BKN050 FM220400 VRB03KT P6SM BKN040

超过4000个机场的气象观测和天气预报(METAR&TAF报告)。

可查询的气象台以黄色和红色小点在地图上表示。

将鼠标移到小点上方,可查看气象台名称。

然后点击查看天气观测和预报。

如需切换地图:点击带黑十字的绿色按钮放大地图;点击带横线的绿色按钮缩小地图;或者点击绿色箭头查看邻近地区的地图。


METAR-TAF: